sensor_id;sensor_type;location;lat;lon;timestamp;pressure;altitude;pressure_sealevel;temperature;humidity
58771;BME280;44539;42.962;1.596;2022-10-17T12:26:25;97669.34;;;20.53;75.38
58771;BME280;44539;42.962;1.596;2022-10-17T12:28:51;97663.50;;;20.74;77.12
58771;BME280;44539;42.962;1.596;2022-10-17T12:33:54;97646.03;;;21.61;69.69
58771;BME280;44539;42.962;1.596;2022-10-17T12:46:50;97634.19;;;23.70;60.72
58771;BME280;44539;42.962;1.596;2022-10-17T12:49:38;97632.28;;;23.70;57.70
58771;BME280;44539;42.962;1.596;2022-10-17T12:54:44;97620.97;;;24.34;56.05
58771;BME280;44539;42.962;1.596;2022-10-17T12:57:20;97612.88;;;24.56;56.83
58771;BME280;44539;42.962;1.596;2022-10-17T12:59:47;97599.72;;;24.70;56.16
58771;BME280;44539;42.962;1.596;2022-10-17T13:02:19;97593.13;;;24.88;55.69
58771;BME280;44539;42.962;1.596;2022-10-17T13:04:47;97592.91;;;24.95;52.89
58771;BME280;44539;42.962;1.596;2022-10-17T13:07:18;97594.00;;;24.67;54.80
58771;BME280;44539;42.962;1.596;2022-10-17T13:09:45;97573.97;;;24.29;56.77
58771;BME280;44539;42.962;1.596;2022-10-17T13:12:22;97571.88;;;24.58;56.09
58771;BME280;44539;42.962;1.596;2022-10-17T13:14:50;97579.50;;;25.15;55.41
58771;BME280;44539;42.962;1.596;2022-10-17T13:17:28;97573.91;;;25.64;52.31
58771;BME280;44539;42.962;1.596;2022-10-17T13:19:55;97566.06;;;25.73;52.54
58771;BME280;44539;42.962;1.596;2022-10-17T13:22:26;97572.28;;;26.11;51.43
58771;BME280;44539;42.962;1.596;2022-10-17T13:25:03;97561.34;;;25.96;52.32
58771;BME280;44539;42.962;1.596;2022-10-17T13:27:33;97567.69;;;25.69;51.47
58771;BME280;44539;42.962;1.596;2022-10-17T13:30:01;97562.91;;;26.44;51.45
58771;BME280;44539;42.962;1.596;2022-10-17T13:32:36;97553.38;;;26.52;49.52
58771;BME280;44539;42.962;1.596;2022-10-17T13:35:08;97556.50;;;26.13;50.04
58771;BME280;44539;42.962;1.596;2022-10-17T13:37:35;97558.94;;;27.03;48.85
58771;BME280;44539;42.962;1.596;2022-10-17T13:40:02;97563.56;;;27.18;49.99
58771;BME280;44539;42.962;1.596;2022-10-17T13:42:37;97554.06;;;27.52;50.18
58771;BME280;44539;42.962;1.596;2022-10-17T13:45:15;97557.91;;;27.30;51.80
58771;BME280;44539;42.962;1.596;2022-10-17T13:47:42;97560.78;;;27.95;49.87
58771;BME280;44539;42.962;1.596;2022-10-17T13:50:19;97564.13;;;27.56;50.69
58771;BME280;44539;42.962;1.596;2022-10-17T13:52:45;97562.25;;;27.46;51.18
58771;BME280;44539;42.962;1.596;2022-10-17T13:55:14;97566.78;;;28.07;50.17
58771;BME280;44539;42.962;1.596;2022-10-17T13:57:40;97558.56;;;28.13;50.27
58771;BME280;44539;42.962;1.596;2022-10-17T14:00:14;97558.38;;;27.78;50.54
58771;BME280;44539;42.962;1.596;2022-10-17T14:02:42;97549.16;;;28.39;48.80
58771;BME280;44539;42.962;1.596;2022-10-17T14:07:37;97540.00;;;28.69;48.40
58771;BME280;44539;42.962;1.596;2022-10-17T14:10:05;97539.63;;;29.26;46.56
58771;BME280;44539;42.962;1.596;2022-10-17T14:12:32;97532.31;;;29.45;46.33
58771;BME280;44539;42.962;1.596;2022-10-17T14:15:01;97539.56;;;29.31;46.25
58771;BME280;44539;42.962;1.596;2022-10-17T14:17:28;97547.28;;;29.24;45.99
58771;BME280;44539;42.962;1.596;2022-10-17T14:19:59;97563.50;;;29.79;45.15
58771;BME280;44539;42.962;1.596;2022-10-17T14:22:32;97554.53;;;29.68;44.71
58771;BME280;44539;42.962;1.596;2022-10-17T14:24:57;97562.50;;;29.93;44.34
58771;BME280;44539;42.962;1.596;2022-10-17T14:27:32;97559.25;;;29.91;44.62
58771;BME280;44539;42.962;1.596;2022-10-17T14:33:00;97546.03;;;29.99;44.57
58771;BME280;44539;42.962;1.596;2022-10-17T14:35:28;97542.84;;;30.10;43.74
58771;BME280;44539;42.962;1.596;2022-10-17T14:38:00;97538.34;;;30.01;44.60
58771;BME280;44539;42.962;1.596;2022-10-17T14:40:27;97544.25;;;30.08;43.47
58771;BME280;44539;42.962;1.596;2022-10-17T14:42:58;97546.50;;;30.30;43.70
58771;BME280;44539;42.962;1.596;2022-10-17T14:45:34;97535.53;;;30.49;42.11
58771;BME280;44539;42.962;1.596;2022-10-17T14:48:03;97541.56;;;30.27;42.99
58771;BME280;44539;42.962;1.596;2022-10-17T14:50:30;97536.03;;;30.32;42.42
58771;BME280;44539;42.962;1.596;2022-10-17T14:55:30;97535.75;;;30.33;42.82
58771;BME280;44539;42.962;1.596;2022-10-17T14:57:56;97529.47;;;30.52;41.47
58771;BME280;44539;42.962;1.596;2022-10-17T15:00:22;97532.44;;;30.37;42.31
58771;BME280;44539;42.962;1.596;2022-10-17T15:02:50;97533.25;;;30.56;42.04
58771;BME280;44539;42.962;1.596;2022-10-17T15:05:16;97529.25;;;30.67;40.91
58771;BME280;44539;42.962;1.596;2022-10-17T15:07:42;97534.81;;;30.81;41.91
58771;BME280;44539;42.962;1.596;2022-10-17T15:10:36;97540.25;;;31.19;40.08
58771;BME280;44539;42.962;1.596;2022-10-17T15:13:06;97539.09;;;31.58;40.08
58771;BME280;44539;42.962;1.596;2022-10-17T15:15:32;97533.19;;;31.65;39.92
58771;BME280;44539;42.962;1.596;2022-10-17T15:17:57;97539.78;;;31.64;40.34
58771;BME280;44539;42.962;1.596;2022-10-17T15:20:24;97540.88;;;31.49;40.18
58771;BME280;44539;42.962;1.596;2022-10-17T15:22:56;97542.06;;;31.76;39.67
58771;BME280;44539;42.962;1.596;2022-10-17T15:25:23;97550.38;;;31.57;39.77
58771;BME280;44539;42.962;1.596;2022-10-17T15:27:49;97544.81;;;31.89;39.01
58771;BME280;44539;42.962;1.596;2022-10-17T15:30:22;97545.91;;;31.61;40.48
58771;BME280;44539;42.962;1.596;2022-10-17T15:32:48;97545.22;;;31.69;39.87
58771;BME280;44539;42.962;1.596;2022-10-17T15:35:15;97548.25;;;31.81;39.55
58771;BME280;44539;42.962;1.596;2022-10-17T15:37:41;97543.50;;;31.73;39.94
58771;BME280;44539;42.962;1.596;2022-10-17T15:40:31;97545.09;;;31.08;41.07
58771;BME280;44539;42.962;1.596;2022-10-17T15:42:56;97545.03;;;30.38;42.27
58771;BME280;44539;42.962;1.596;2022-10-17T15:45:22;97541.41;;;30.99;41.37
58771;BME280;44539;42.962;1.596;2022-10-17T15:48:03;97551.47;;;30.66;41.86
58771;BME280;44539;42.962;1.596;2022-10-17T15:50:29;97555.72;;;30.58;42.16
58771;BME280;44539;42.962;1.596;2022-10-17T15:52:54;97555.56;;;30.68;41.61
58771;BME280;44539;42.962;1.596;2022-10-17T15:55:20;97561.41;;;30.43;42.60
58771;BME280;44539;42.962;1.596;2022-10-17T15:57:46;97567.63;;;30.48;42.84
58771;BME280;44539;42.962;1.596;2022-10-17T16:00:16;97572.50;;;30.27;43.22
58771;BME280;44539;42.962;1.596;2022-10-17T16:02:42;97576.13;;;30.47;42.76
58771;BME280;44539;42.962;1.596;2022-10-17T16:05:24;97575.88;;;29.66;44.23
58771;BME280;44539;42.962;1.596;2022-10-17T16:07:51;97576.25;;;29.30;45.08
58771;BME280;44539;42.962;1.596;2022-10-17T16:10:18;97572.91;;;28.49;47.37
58771;BME280;44539;42.962;1.596;2022-10-17T16:12:44;97572.31;;;27.10;50.65
58771;BME280;44539;42.962;1.596;2022-10-17T16:15:24;97577.13;;;26.62;53.06
58771;BME280;44539;42.962;1.596;2022-10-17T16:17:51;97576.72;;;26.27;54.27
58771;BME280;44539;42.962;1.596;2022-10-17T16:20:17;97578.22;;;25.55;55.88
58771;BME280;44539;42.962;1.596;2022-10-17T16:22:44;97577.53;;;25.38;57.10
58771;BME280;44539;42.962;1.596;2022-10-17T16:27:44;97587.69;;;24.88;59.65
58771;BME280;44539;42.962;1.596;2022-10-17T16:30:11;97579.78;;;24.59;60.71
58771;BME280;44539;42.962;1.596;2022-10-17T16:32:36;97587.59;;;24.34;62.80
58771;BME280;44539;42.962;1.596;2022-10-17T16:35:02;97588.94;;;24.09;64.83
58771;BME280;44539;42.962;1.596;2022-10-17T16:37:27;97594.59;;;23.69;67.52
58771;BME280;44539;42.962;1.596;2022-10-17T16:39:53;97588.66;;;23.21;69.83
58771;BME280;44539;42.962;1.596;2022-10-17T16:42:19;97595.69;;;22.88;71.56
58771;BME280;44539;42.962;1.596;2022-10-17T16:44:45;97590.03;;;22.61;73.69
58771;BME280;44539;42.962;1.596;2022-10-17T16:47:11;97592.59;;;22.27;76.08
58771;BME280;44539;42.962;1.596;2022-10-17T16:49:36;97596.63;;;22.01;78.33
58771;BME280;44539;42.962;1.596;2022-10-17T16:52:03;97595.38;;;21.68;80.31
58771;BME280;44539;42.962;1.596;2022-10-17T16:54:28;97604.72;;;21.30;81.09
58771;BME280;44539;42.962;1.596;2022-10-17T16:56:54;97597.81;;;21.34;80.43
58771;BME280;44539;42.962;1.596;2022-10-17T16:59:22;97608.56;;;21.11;84.45
58771;BME280;44539;42.962;1.596;2022-10-17T17:01:48;97609.91;;;20.90;85.26
58771;BME280;44539;42.962;1.596;2022-10-17T17:04:13;97620.66;;;20.78;84.65
58771;BME280;44539;42.962;1.596;2022-10-17T17:06:39;97628.22;;;20.57;86.20
58771;BME280;44539;42.962;1.596;2022-10-17T17:09:04;97622.69;;;20.34;85.77
58771;BME280;44539;42.962;1.596;2022-10-17T17:11:29;97613.53;;;20.35;86.07
58771;BME280;44539;42.962;1.596;2022-10-17T17:13:57;97622.97;;;20.44;86.32
58771;BME280;44539;42.962;1.596;2022-10-17T17:16:24;97622.38;;;20.42;85.54
58771;BME280;44539;42.962;1.596;2022-10-17T17:18:55;97621.47;;;20.11;86.96
58771;BME280;44539;42.962;1.596;2022-10-17T17:21:21;97624.91;;;19.82;90.85
58771;BME280;44539;42.962;1.596;2022-10-17T17:23:46;97636.34;;;19.77;91.06
58771;BME280;44539;42.962;1.596;2022-10-17T17:26:14;97635.84;;;19.87;89.45
58771;BME280;44539;42.962;1.596;2022-10-17T17:28:40;97643.84;;;19.75;89.69
58771;BME280;44539;42.962;1.596;2022-10-17T17:31:09;97649.09;;;19.38;91.66
58771;BME280;44539;42.962;1.596;2022-10-17T17:33:36;97637.03;;;19.15;93.00
58771;BME280;44539;42.962;1.596;2022-10-17T17:36:03;97645.66;;;18.99;93.71
58771;BME280;44539;42.962;1.596;2022-10-17T17:38:30;97649.09;;;18.68;94.82
58771;BME280;44539;42.962;1.596;2022-10-17T17:40:56;97650.41;;;18.59;95.69
58771;BME280;44539;42.962;1.596;2022-10-17T17:43:21;97650.81;;;18.55;95.89
58771;BME280;44539;42.962;1.596;2022-10-17T17:45:47;97657.63;;;18.58;95.06
58771;BME280;44539;42.962;1.596;2022-10-17T17:48:13;97657.66;;;18.51;94.97
58771;BME280;44539;42.962;1.596;2022-10-17T17:50:39;97657.53;;;18.33;96.45
58771;BME280;44539;42.962;1.596;2022-10-17T17:53:06;97669.19;;;18.00;98.42
58771;BME280;44539;42.962;1.596;2022-10-17T17:55:32;97678.72;;;17.83;99.74
58771;BME280;44539;42.962;1.596;2022-10-17T17:57:58;97676.25;;;17.94;99.30
58771;BME280;44539;42.962;1.596;2022-10-17T18:00:24;97689.88;;;18.06;98.03
58771;BME280;44539;42.962;1.596;2022-10-17T18:02:49;97684.91;;;17.90;99.03
58771;BME280;44539;42.962;1.596;2022-10-17T18:05:15;97680.34;;;17.70;100.00
58771;BME280;44539;42.962;1.596;2022-10-17T18:07:40;97683.25;;;17.42;100.00
58771;BME280;44539;42.962;1.596;2022-10-17T18:10:06;97689.44;;;17.43;100.00
58771;BME280;44539;42.962;1.596;2022-10-17T18:12:32;97684.06;;;17.29;100.00
58771;BME280;44539;42.962;1.596;2022-10-17T18:14:59;97686.34;;;17.32;100.00
58771;BME280;44539;42.962;1.596;2022-10-17T18:17:24;97684.06;;;17.03;100.00
58771;BME280;44539;42.962;1.596;2022-10-17T18:19:50;97686.09;;;17.01;100.00
58771;BME280;44539;42.962;1.596;2022-10-17T18:22:15;97696.22;;;16.99;100.00
58771;BME280;44539;42.962;1.596;2022-10-17T18:24:41;97705.91;;;17.00;100.00
58771;BME280;44539;42.962;1.596;2022-10-17T18:27:06;97703.69;;;17.17;100.00
58771;BME280;44539;42.962;1.596;2022-10-17T18:29:31;97707.81;;;17.19;100.00
58771;BME280;44539;42.962;1.596;2022-10-17T18:31:58;97721.19;;;17.06;100.00
58771;BME280;44539;42.962;1.596;2022-10-17T18:34:24;97712.88;;;16.81;100.00
58771;BME280;44539;42.962;1.596;2022-10-17T18:36:49;97720.00;;;16.67;100.00
58771;BME280;44539;42.962;1.596;2022-10-17T18:39:17;97720.19;;;16.59;100.00
58771;BME280;44539;42.962;1.596;2022-10-17T18:41:42;97734.69;;;16.36;100.00
58771;BME280;44539;42.962;1.596;2022-10-17T18:44:08;97728.97;;;16.39;100.00
58771;BME280;44539;42.962;1.596;2022-10-17T18:46:35;97733.66;;;16.30;100.00
58771;BME280;44539;42.962;1.596;2022-10-17T18:49:05;97740.66;;;16.31;100.00
58771;BME280;44539;42.962;1.596;2022-10-17T18:51:30;97735.16;;;16.46;100.00
58771;BME280;44539;42.962;1.596;2022-10-17T18:53:56;97742.00;;;16.49;100.00
58771;BME280;44539;42.962;1.596;2022-10-17T18:56:23;97740.28;;;16.35;100.00
58771;BME280;44539;42.962;1.596;2022-10-17T18:58:49;97742.69;;;16.29;100.00
58771;BME280;44539;42.962;1.596;2022-10-17T19:01:17;97749.84;;;16.16;100.00
58771;BME280;44539;42.962;1.596;2022-10-17T19:03:46;97752.78;;;15.92;100.00
58771;BME280;44539;42.962;1.596;2022-10-17T19:06:15;97751.44;;;15.82;100.00
58771;BME280;44539;42.962;1.596;2022-10-17T19:08:41;97746.00;;;15.97;100.00
58771;BME280;44539;42.962;1.596;2022-10-17T19:11:22;97753.09;;;15.83;100.00
58771;BME280;44539;42.962;1.596;2022-10-17T19:13:48;97759.44;;;15.75;100.00
58771;BME280;44539;42.962;1.596;2022-10-17T19:16:20;97770.94;;;15.97;100.00
58771;BME280;44539;42.962;1.596;2022-10-17T19:18:53;97772.03;;;16.03;100.00
58771;BME280;44539;42.962;1.596;2022-10-17T19:21:19;97768.19;;;16.19;100.00
58771;BME280;44539;42.962;1.596;2022-10-17T19:23:53;97768.13;;;16.05;100.00
58771;BME280;44539;42.962;1.596;2022-10-17T19:26:19;97770.69;;;15.92;100.00
58771;BME280;44539;42.962;1.596;2022-10-17T19:28:45;97770.34;;;16.02;100.00
58771;BME280;44539;42.962;1.596;2022-10-17T19:31:12;97771.06;;;15.89;100.00
58771;BME280;44539;42.962;1.596;2022-10-17T19:33:38;97772.38;;;15.71;100.00
58771;BME280;44539;42.962;1.596;2022-10-17T19:36:06;97772.81;;;15.75;100.00
58771;BME280;44539;42.962;1.596;2022-10-17T19:38:32;97772.34;;;15.93;100.00
58771;BME280;44539;42.962;1.596;2022-10-17T19:40:58;97776.69;;;15.94;100.00
58771;BME280;44539;42.962;1.596;2022-10-17T19:43:24;97777.78;;;15.78;100.00
58771;BME280;44539;42.962;1.596;2022-10-17T19:45:58;97791.75;;;15.74;100.00
58771;BME280;44539;42.962;1.596;2022-10-17T19:48:24;97793.13;;;15.48;100.00
58771;BME280;44539;42.962;1.596;2022-10-17T19:50:50;97792.50;;;15.46;100.00
58771;BME280;44539;42.962;1.596;2022-10-17T19:53:17;97799.25;;;15.42;100.00
58771;BME280;44539;42.962;1.596;2022-10-17T19:55:42;97805.25;;;15.44;100.00
58771;BME280;44539;42.962;1.596;2022-10-17T19:58:08;97807.38;;;15.34;100.00
58771;BME280;44539;42.962;1.596;2022-10-17T20:00:33;97808.13;;;15.27;100.00
58771;BME280;44539;42.962;1.596;2022-10-17T20:02:59;97812.22;;;15.23;100.00
58771;BME280;44539;42.962;1.596;2022-10-17T20:05:27;97810.91;;;15.34;100.00
58771;BME280;44539;42.962;1.596;2022-10-17T20:07:52;97815.84;;;15.16;100.00
58771;BME280;44539;42.962;1.596;2022-10-17T20:10:18;97823.41;;;15.12;100.00
58771;BME280;44539;42.962;1.596;2022-10-17T20:12:44;97827.94;;;15.11;100.00
58771;BME280;44539;42.962;1.596;2022-10-17T20:15:10;97832.59;;;14.88;100.00
58771;BME280;44539;42.962;1.596;2022-10-17T20:17:35;97825.94;;;14.99;100.00
58771;BME280;44539;42.962;1.596;2022-10-17T20:20:00;97832.00;;;15.07;100.00
58771;BME280;44539;42.962;1.596;2022-10-17T20:22:28;97828.75;;;15.12;100.00
58771;BME280;44539;42.962;1.596;2022-10-17T20:24:54;97825.94;;;14.99;100.00
58771;BME280;44539;42.962;1.596;2022-10-17T20:27:19;97831.47;;;14.82;100.00
58771;BME280;44539;42.962;1.596;2022-10-17T20:29:45;97841.81;;;14.70;100.00
58771;BME280;44539;42.962;1.596;2022-10-17T20:32:10;97849.63;;;14.57;100.00
58771;BME280;44539;42.962;1.596;2022-10-17T20:34:35;97845.88;;;14.66;100.00
58771;BME280;44539;42.962;1.596;2022-10-17T20:37:01;97843.53;;;14.63;100.00
58771;BME280;44539;42.962;1.596;2022-10-17T20:39:27;97844.66;;;14.84;100.00
58771;BME280;44539;42.962;1.596;2022-10-17T20:41:53;97849.19;;;14.83;100.00
58771;BME280;44539;42.962;1.596;2022-10-17T20:44:18;97848.81;;;14.57;100.00
58771;BME280;44539;42.962;1.596;2022-10-17T20:46:44;97852.81;;;14.53;100.00
58771;BME280;44539;42.962;1.596;2022-10-17T20:49:13;97848.03;;;14.48;100.00
58771;BME280;44539;42.962;1.596;2022-10-17T20:51:39;97862.75;;;14.29;100.00
58771;BME280;44539;42.962;1.596;2022-10-17T20:54:05;97858.88;;;14.32;100.00
58771;BME280;44539;42.962;1.596;2022-10-17T20:56:32;97859.19;;;14.52;100.00
58771;BME280;44539;42.962;1.596;2022-10-17T20:59:00;97868.22;;;14.50;100.00
58771;BME280;44539;42.962;1.596;2022-10-17T21:01:27;97862.50;;;14.39;100.00
58771;BME280;44539;42.962;1.596;2022-10-17T21:03:53;97868.75;;;14.31;100.00
58771;BME280;44539;42.962;1.596;2022-10-17T21:06:19;97870.09;;;14.27;100.00
58771;BME280;44539;42.962;1.596;2022-10-17T21:08:45;97876.50;;;14.41;100.00
58771;BME280;44539;42.962;1.596;2022-10-17T21:11:16;97880.56;;;14.52;100.00
58771;BME280;44539;42.962;1.596;2022-10-17T21:13:42;97878.22;;;14.72;100.00
58771;BME280;44539;42.962;1.596;2022-10-17T21:16:13;97887.38;;;14.77;100.00
58771;BME280;44539;42.962;1.596;2022-10-17T21:18:40;97884.97;;;14.82;100.00
58771;BME280;44539;42.962;1.596;2022-10-17T21:21:08;97880.91;;;14.86;100.00
58771;BME280;44539;42.962;1.596;2022-10-17T21:23:34;97877.41;;;14.71;100.00
58771;BME280;44539;42.962;1.596;2022-10-17T21:26:00;97876.66;;;14.92;100.00
58771;BME280;44539;42.962;1.596;2022-10-17T21:28:25;97875.28;;;14.96;100.00
58771;BME280;44539;42.962;1.596;2022-10-17T21:30:50;97875.56;;;14.86;100.00
58771;BME280;44539;42.962;1.596;2022-10-17T21:33:16;97872.53;;;14.89;100.00
58771;BME280;44539;42.962;1.596;2022-10-17T21:35:41;97866.44;;;14.81;100.00
58771;BME280;44539;42.962;1.596;2022-10-17T21:38:07;97864.38;;;14.53;100.00
58771;BME280;44539;42.962;1.596;2022-10-17T21:40:32;97866.38;;;14.51;100.00
58771;BME280;44539;42.962;1.596;2022-10-17T21:42:57;97874.03;;;14.54;100.00
58771;BME280;44539;42.962;1.596;2022-10-17T21:45:23;97875.41;;;14.50;100.00
58771;BME280;44539;42.962;1.596;2022-10-17T21:47:48;97882.69;;;14.41;100.00
58771;BME280;44539;42.962;1.596;2022-10-17T21:50:14;97883.69;;;14.40;100.00
58771;BME280;44539;42.962;1.596;2022-10-17T21:52:39;97895.03;;;14.42;100.00
58771;BME280;44539;42.962;1.596;2022-10-17T21:55:04;97883.91;;;14.54;100.00
58771;BME280;44539;42.962;1.596;2022-10-17T21:57:30;97882.69;;;14.41;100.00
58771;BME280;44539;42.962;1.596;2022-10-17T21:59:55;97876.22;;;14.50;100.00
58771;BME280;44539;42.962;1.596;2022-10-17T22:02:21;97877.78;;;14.68;100.00
58771;BME280;44539;42.962;1.596;2022-10-17T22:04:46;97880.72;;;14.73;100.00
58771;BME280;44539;42.962;1.596;2022-10-17T22:07:12;97886.56;;;14.54;100.00
58771;BME280;44539;42.962;1.596;2022-10-17T22:09:37;97894.00;;;14.43;100.00
58771;BME280;44539;42.962;1.596;2022-10-17T22:12:02;97881.56;;;14.36;100.00
58771;BME280;44539;42.962;1.596;2022-10-17T22:14:28;97882.75;;;14.33;100.00
58771;BME280;44539;42.962;1.596;2022-10-17T22:16:54;97886.13;;;14.27;100.00
58771;BME280;44539;42.962;1.596;2022-10-17T22:19:22;97883.84;;;14.24;100.00
58771;BME280;44539;42.962;1.596;2022-10-17T22:21:47;97882.72;;;14.18;100.00
58771;BME280;44539;42.962;1.596;2022-10-17T22:24:15;97883.19;;;14.22;100.00
58771;BME280;44539;42.962;1.596;2022-10-17T22:26:40;97872.38;;;14.38;100.00
58771;BME280;44539;42.962;1.596;2022-10-17T22:29:07;97868.81;;;14.23;100.00
58771;BME280;44539;42.962;1.596;2022-10-17T22:31:33;97876.06;;;14.14;100.00
58771;BME280;44539;42.962;1.596;2022-10-17T22:33:59;97873.19;;;14.01;100.00
58771;BME280;44539;42.962;1.596;2022-10-17T22:36:24;97861.34;;;13.95;100.00
58771;BME280;44539;42.962;1.596;2022-10-17T22:38:50;97864.22;;;14.17;100.00
58771;BME280;44539;42.962;1.596;2022-10-17T22:41:16;97875.63;;;14.11;100.00
58771;BME280;44539;42.962;1.596;2022-10-17T22:43:41;97869.84;;;13.99;100.00
58771;BME280;44539;42.962;1.596;2022-10-17T22:46:08;97865.75;;;13.88;100.00
58771;BME280;44539;42.962;1.596;2022-10-17T22:48:34;97865.28;;;13.84;100.00
58771;BME280;44539;42.962;1.596;2022-10-17T23:22:07;97904.50;;;14.07;100.00
58771;BME280;44539;42.962;1.596;2022-10-17T23:24:34;97909.81;;;13.92;100.00
58771;BME280;44539;42.962;1.596;2022-10-17T23:27:00;97907.88;;;13.78;100.00
58771;BME280;44539;42.962;1.596;2022-10-17T23:29:31;97911.56;;;13.77;100.00
58771;BME280;44539;42.962;1.596;2022-10-17T23:31:57;97908.59;;;13.72;100.00
58771;BME280;44539;42.962;1.596;2022-10-17T23:34:23;97911.47;;;13.70;100.00
58771;BME280;44539;42.962;1.596;2022-10-17T23:36:48;97911.91;;;13.74;100.00
58771;BME280;44539;42.962;1.596;2022-10-17T23:39:15;97905.69;;;13.81;100.00
58771;BME280;44539;42.962;1.596;2022-10-17T23:41:40;97906.81;;;13.64;100.00
58771;BME280;44539;42.962;1.596;2022-10-17T23:44:06;97902.13;;;13.35;100.00
58771;BME280;44539;42.962;1.596;2022-10-17T23:46:31;97909.31;;;13.26;100.00
58771;BME280;44539;42.962;1.596;2022-10-17T23:48:57;97908.13;;;13.37;100.00
58771;BME280;44539;42.962;1.596;2022-10-17T23:51:22;97921.72;;;13.50;100.00
58771;BME280;44539;42.962;1.596;2022-10-17T23:53:47;97918.19;;;13.58;100.00
58771;BME280;44539;42.962;1.596;2022-10-17T23:56:13;97919.53;;;13.54;100.00
58771;BME280;44539;42.962;1.596;2022-10-17T23:58:39;97916.25;;;13.43;100.00
